createdAt,value
2018-05-08T00:00:53.144Z,61.65
2018-05-08T00:01:53.113Z,60.79
2018-05-08T00:02:53.053Z,59.65
2018-05-08T00:03:53.003Z,59.65
2018-05-08T00:04:52.987Z,60.13
2018-05-08T00:05:52.953Z,59.65
2018-05-08T00:06:52.960Z,58.32
2018-05-08T00:07:52.852Z,58.70
2018-05-08T00:08:52.922Z,61.07
2018-05-08T00:09:52.783Z,61.93
2018-05-08T00:10:52.758Z,59.17
2018-05-08T00:11:52.699Z,58.22
2018-05-08T00:12:52.693Z,57.94
2018-05-08T00:13:52.628Z,58.70
2018-05-08T00:14:52.615Z,59.84
2018-05-08T00:15:52.553Z,60.03
2018-05-08T00:16:52.508Z,61.74
2018-05-08T00:17:52.467Z,61.74
2018-05-08T00:18:52.481Z,61.74
2018-05-08T00:19:52.425Z,61.93
2018-05-08T00:20:52.391Z,64.11
2018-05-08T00:21:52.326Z,61.45
2018-05-08T00:22:52.299Z,63.35
2018-05-08T00:23:52.228Z,61.55
2018-05-08T00:24:52.205Z,62.37
2018-05-08T00:25:52.158Z,62.27
2018-05-08T00:26:52.163Z,62.27
2018-05-08T00:27:52.083Z,62.75
2018-05-08T00:28:52.035Z,62.37
2018-05-08T00:29:52.003Z,60.57
2018-05-08T00:30:51.990Z,59.71
2018-05-08T00:31:51.944Z,61.23
2018-05-08T00:32:51.877Z,60.00
2018-05-08T00:33:51.890Z,59.14
2018-05-08T00:34:51.803Z,57.81
2018-05-08T00:35:51.764Z,57.34
2018-05-08T00:36:51.717Z,57.81
2018-05-08T00:37:51.698Z,58.10
2018-05-08T00:38:51.654Z,58.03
2018-05-08T00:39:51.604Z,58.22
2018-05-08T00:40:51.555Z,58.13
2018-05-08T00:41:51.517Z,60.19
2018-05-08T00:42:51.480Z,59.81
2018-05-08T00:43:51.445Z,59.81
2018-05-08T00:44:51.415Z,58.58
2018-05-08T00:45:51.369Z,58.00
2018-05-08T00:46:51.376Z,57.72
2018-05-08T00:47:51.297Z,57.81
2018-05-08T00:48:51.237Z,58.48
2018-05-08T00:49:51.199Z,60.47
2018-05-08T00:50:51.168Z,61.52
2018-05-08T00:51:51.136Z,60.85
2018-05-08T00:52:51.101Z,60.47
2018-05-08T00:53:51.065Z,59.05
2018-05-08T00:54:51.012Z,57.72
2018-05-08T00:55:50.974Z,57.43
2018-05-08T00:56:50.941Z,56.96
2018-05-08T00:57:50.884Z,57.81
2018-05-08T00:58:50.947Z,57.53
2018-05-08T00:59:50.823Z,57.81
2018-05-08T01:00:50.769Z,57.62
2018-05-08T01:01:50.733Z,57.59
2018-05-08T01:02:50.700Z,57.59
2018-05-08T01:03:50.644Z,58.07
2018-05-08T01:04:50.635Z,57.40
2018-05-08T01:05:50.565Z,57.40
2018-05-08T01:06:50.549Z,57.59
2018-05-08T01:07:50.485Z,57.31
2018-05-08T01:08:50.468Z,57.12
2018-05-08T01:09:50.420Z,57.31
2018-05-08T01:10:50.416Z,57.21
2018-05-08T01:11:50.352Z,57.12
2018-05-08T01:12:50.333Z,56.55
2018-05-08T01:13:50.280Z,56.27
2018-05-08T01:14:50.217Z,56.10
2018-05-08T01:15:50.173Z,56.29
2018-05-08T01:16:50.133Z,55.91
2018-05-08T01:17:50.100Z,56.29
2018-05-08T01:18:50.062Z,56.68
2018-05-08T01:19:50.033Z,56.29
2018-05-08T01:20:49.975Z,56.65
2018-05-08T01:21:49.933Z,57.03
2018-05-08T01:22:49.892Z,56.84
2018-05-08T01:23:49.852Z,57.31
2018-05-08T01:24:49.823Z,57.06
2018-05-08T01:25:49.784Z,57.12
2018-05-08T01:26:49.764Z,56.68
2018-05-08T01:27:49.693Z,56.17
2018-05-08T01:28:49.645Z,56.65
2018-05-08T01:29:49.638Z,56.36
2018-05-08T01:30:49.576Z,56.29
2018-05-08T01:31:49.552Z,57.12
2018-05-08T01:32:49.513Z,57.03
2018-05-08T01:33:49.459Z,57.31
2018-05-08T01:34:49.431Z,57.69
2018-05-08T01:35:49.386Z,57.21
2018-05-08T01:36:49.350Z,57.03
2018-05-08T01:37:49.291Z,57.12
2018-05-08T01:38:49.256Z,57.12
2018-05-08T01:39:49.213Z,57.12
2018-05-08T01:40:49.197Z,57.21
2018-05-08T01:41:49.154Z,56.84
2018-05-08T01:42:49.100Z,57.12
2018-05-08T01:43:49.079Z,56.74
2018-05-08T01:44:49.020Z,56.93
2018-05-08T01:45:49.042Z,56.84
2018-05-08T01:46:48.933Z,57.12
2018-05-08T01:47:48.892Z,56.93
2018-05-08T01:48:48.903Z,57.40
2018-05-08T01:49:48.923Z,57.40
2018-05-08T01:50:48.855Z,57.03
2018-05-08T01:51:48.738Z,56.65
2018-05-08T01:52:48.742Z,56.74
2018-05-08T01:53:48.677Z,56.84
2018-05-08T01:54:48.628Z,57.31
2018-05-08T01:55:48.595Z,57.40
2018-05-08T01:56:48.534Z,57.31
2018-05-08T01:57:48.507Z,57.21
2018-05-08T01:58:48.471Z,57.50
2018-05-08T01:59:48.440Z,57.88
2018-05-08T02:00:48.372Z,57.59
2018-05-08T02:01:48.327Z,57.88
2018-05-08T02:02:48.291Z,57.40
2018-05-08T02:03:48.279Z,57.59
2018-05-08T02:04:48.221Z,57.59
2018-05-08T02:05:48.234Z,57.79
2018-05-08T02:06:48.125Z,57.31
2018-05-08T02:07:48.090Z,57.59
2018-05-08T02:08:48.055Z,58.04
2018-05-08T02:09:48.912Z,58.07
2018-05-08T02:10:47.966Z,57.50
2018-05-08T02:11:47.931Z,57.50
2018-05-08T02:12:47.898Z,58.36
2018-05-08T02:13:47.858Z,58.23
2018-05-08T02:14:47.878Z,58.42
2018-05-08T02:15:47.792Z,58.42
2018-05-08T02:16:47.728Z,58.61
2018-05-08T02:17:47.753Z,58.70
2018-05-08T02:18:47.661Z,58.80
2018-05-08T02:19:47.656Z,58.51
2018-05-08T02:20:47.609Z,58.70
2018-05-08T02:21:47.531Z,58.42
2018-05-08T02:22:47.523Z,58.70
2018-05-08T02:23:47.504Z,58.80
2018-05-08T02:24:47.403Z,58.61
2018-05-08T02:25:47.488Z,58.99
2018-05-08T02:26:47.343Z,59.66
2018-05-08T02:27:47.310Z,59.27
2018-05-08T02:28:47.262Z,59.27
2018-05-08T02:29:47.203Z,59.08
2018-05-08T02:30:47.173Z,59.27
2018-05-08T02:31:47.122Z,59.18
2018-05-08T02:32:47.090Z,59.75
2018-05-08T02:33:47.056Z,59.66
2018-05-08T02:34:47.009Z,59.75
2018-05-08T02:35:46.965Z,59.37
2018-05-08T02:36:46.929Z,59.46
2018-05-08T02:37:46.876Z,59.84
2018-05-08T02:38:46.864Z,60.60
2018-05-08T02:39:46.798Z,60.41
2018-05-08T02:40:46.825Z,60.50
2018-05-08T02:41:46.708Z,60.57
2018-05-08T02:42:46.677Z,60.57
2018-05-08T02:43:46.662Z,60.67
2018-05-08T02:44:46.668Z,60.47
2018-05-08T02:45:46.613Z,60.67
2018-05-08T02:46:46.555Z,61.24
2018-05-08T02:47:46.487Z,61.33
2018-05-08T02:48:46.431Z,61.05
2018-05-08T02:49:46.421Z,61.05
2018-05-08T02:50:46.377Z,61.14
2018-05-08T02:51:46.329Z,61.43
2018-05-08T02:52:46.319Z,61.24
2018-05-08T02:53:46.284Z,61.33
2018-05-08T02:54:46.214Z,61.43
2018-05-08T02:55:46.156Z,61.61
2018-05-08T02:56:46.128Z,61.52
2018-05-08T02:57:46.104Z,61.71
2018-05-08T02:58:46.043Z,61.61
2018-05-08T02:59:45.992Z,61.43
2018-05-08T03:00:45.952Z,61.99
2018-05-08T03:01:45.909Z,62.08
2018-05-08T03:02:45.857Z,61.90
2018-05-08T03:03:45.833Z,61.71
2018-05-08T03:04:45.824Z,61.90
2018-05-08T03:05:45.829Z,61.83
2018-05-08T03:06:45.719Z,61.46
2018-05-08T03:07:45.681Z,61.36
2018-05-08T03:08:45.697Z,61.83
2018-05-08T03:09:45.617Z,61.46
2018-05-08T03:10:45.577Z,61.55
2018-05-08T03:11:45.567Z,61.83
2018-05-08T03:12:45.478Z,61.74
2018-05-08T03:13:45.413Z,61.65
2018-05-08T03:14:45.376Z,61.36
2018-05-08T03:15:45.353Z,62.08
2018-05-08T03:16:45.356Z,61.74
2018-05-08T03:17:45.258Z,61.80
2018-05-08T03:18:45.203Z,62.12
2018-05-08T03:19:45.165Z,61.80
2018-05-08T03:20:45.127Z,61.61
2018-05-08T03:21:45.083Z,61.90
2018-05-08T03:22:45.056Z,61.90
2018-05-08T03:23:45.028Z,62.28
2018-05-08T03:24:45.911Z,62.28
2018-05-08T03:25:44.946Z,62.37
2018-05-08T03:26:44.896Z,62.56
2018-05-08T03:27:44.864Z,62.56
2018-05-08T03:28:44.798Z,62.94
2018-05-08T03:29:44.765Z,62.28
2018-05-08T03:30:44.734Z,62.56
2018-05-08T03:31:44.694Z,62.66
2018-05-08T03:32:44.653Z,62.85
2018-05-08T03:33:44.669Z,62.56
2018-05-08T03:34:44.593Z,62.56
2018-05-08T03:35:44.566Z,62.75
2018-05-08T03:36:44.477Z,63.13
2018-05-08T03:37:44.462Z,62.75
2018-05-08T03:38:44.392Z,62.94
2018-05-08T03:39:44.379Z,62.85
2018-05-08T03:40:44.330Z,62.94
2018-05-08T03:41:44.270Z,62.85
2018-05-08T03:42:44.262Z,62.85
2018-05-08T03:43:44.190Z,62.75
2018-05-08T03:44:44.149Z,63.13
2018-05-08T03:45:44.132Z,63.70
2018-05-08T03:46:44.094Z,63.13
2018-05-08T03:47:44.097Z,62.75
2018-05-08T03:48:43.981Z,62.88
2018-05-08T03:49:43.947Z,63.70
2018-05-08T03:50:43.959Z,63.79
2018-05-08T03:51:43.879Z,63.42
2018-05-08T03:52:43.852Z,62.85
2018-05-08T03:53:43.793Z,62.69
2018-05-08T03:54:43.762Z,63.51
2018-05-08T03:55:43.720Z,63.42
2018-05-08T03:56:43.670Z,63.32
2018-05-08T03:57:43.617Z,63.70
2018-05-08T03:58:43.568Z,63.32
2018-05-08T03:59:43.556Z,63.79
2018-05-08T04:00:43.497Z,63.13
2018-05-08T04:01:43.465Z,63.13
2018-05-08T04:02:43.477Z,62.75
2018-05-08T04:03:43.384Z,62.97
2018-05-08T04:04:43.569Z,62.85
2018-05-08T04:05:43.287Z,63.04
2018-05-08T04:06:43.327Z,62.85
2018-05-08T04:07:43.277Z,62.94
2018-05-08T04:08:43.195Z,63.04
2018-05-08T04:09:43.223Z,62.47
2018-05-08T04:10:43.921Z,62.47
2018-05-08T04:11:43.034Z,62.47
2018-05-08T04:12:42.996Z,62.37
2018-05-08T04:13:42.976Z,62.08
2018-05-08T04:14:42.923Z,62.47
2018-05-08T04:15:42.879Z,62.18
2018-05-08T04:16:42.874Z,62.37
2018-05-08T04:17:42.801Z,62.47
2018-05-08T04:18:42.750Z,62.47
2018-05-08T04:19:42.803Z,61.90
2018-05-08T04:20:42.706Z,62.08
2018-05-08T04:21:42.638Z,61.36
2018-05-08T04:22:42.619Z,61.27
2018-05-08T04:23:42.583Z,61.08
2018-05-08T04:24:42.511Z,61.08
2018-05-08T04:25:42.468Z,61.36
2018-05-08T04:26:42.426Z,61.46
2018-05-08T04:27:42.382Z,61.17
2018-05-08T04:28:42.388Z,61.46
2018-05-08T04:29:42.305Z,60.60
2018-05-08T04:30:42.320Z,60.79
2018-05-08T04:31:42.294Z,60.31
2018-05-08T04:32:42.192Z,60.03
2018-05-08T04:33:42.158Z,60.03
2018-05-08T04:34:42.091Z,59.75
2018-05-08T04:35:42.059Z,59.75
2018-05-08T04:36:42.059Z,59.84
2018-05-08T04:37:42.008Z,59.21
2018-05-08T04:38:41.950Z,59.02
2018-05-08T04:39:41.898Z,58.73
2018-05-08T04:40:41.866Z,58.92
2018-05-08T04:41:41.822Z,59.30
2018-05-08T04:42:41.775Z,59.78
2018-05-08T04:43:41.780Z,59.68
2018-05-08T04:44:41.708Z,60.98
2018-05-08T04:45:41.661Z,61.36
2018-05-08T04:46:41.634Z,64.49
2018-05-08T04:47:41.563Z,65.91
2018-05-08T04:48:41.530Z,65.06
2018-05-08T04:49:41.517Z,64.87
2018-05-08T04:50:41.461Z,64.90
2018-05-08T04:51:41.440Z,63.95
2018-05-08T04:52:41.388Z,63.20
2018-05-08T04:53:41.351Z,64.33
2018-05-08T04:54:41.308Z,67.18
2018-05-08T04:55:41.276Z,67.37
2018-05-08T04:56:41.228Z,68.04
2018-05-08T04:57:41.174Z,68.04
2018-05-08T04:58:41.123Z,69.65
2018-05-08T04:59:41.104Z,68.79
2018-05-08T05:00:41.068Z,71.64
2018-05-08T05:01:41.031Z,74.11
2018-05-08T05:02:41.010Z,73.00
2018-05-08T05:03:40.951Z,71.39
2018-05-08T05:04:40.885Z,73.76
2018-05-08T05:05:40.932Z,75.70
2018-05-08T05:06:40.816Z,78.59
2018-05-08T05:07:40.791Z,95.27
2018-05-08T05:08:40.753Z,99.99
2018-05-08T05:09:40.760Z,99.99
2018-05-08T05:10:40.709Z,99.99
2018-05-08T05:11:40.631Z,99.99
2018-05-08T05:12:40.592Z,99.99
2018-05-08T05:13:40.615Z,99.99
2018-05-08T05:14:40.505Z,99.99
2018-05-08T05:15:40.457Z,99.99
2018-05-08T05:16:40.494Z,99.99
2018-05-08T05:17:40.426Z,99.99
2018-05-08T05:18:40.355Z,99.99
2018-05-08T05:19:40.331Z,99.99
2018-05-08T05:20:40.311Z,99.99
2018-05-08T05:21:40.263Z,99.99
2018-05-08T05:22:40.198Z,99.99
2018-05-08T05:23:40.166Z,99.99
2018-05-08T05:24:40.138Z,99.99
2018-05-08T05:25:40.109Z,99.99
2018-05-08T05:26:40.053Z,99.99
2018-05-08T05:27:40.005Z,99.99
2018-05-08T05:28:40.003Z,99.99
2018-05-08T05:29:39.940Z,99.99
2018-05-08T05:30:39.902Z,99.99
2018-05-08T05:31:39.920Z,99.99
2018-05-08T05:32:39.849Z,99.99
2018-05-08T05:33:39.802Z,99.99
2018-05-08T05:34:39.757Z,99.99
2018-05-08T05:35:39.717Z,99.99
2018-05-08T05:36:39.694Z,99.99
2018-05-08T05:37:39.659Z,99.99
2018-05-08T05:38:39.643Z,99.99
2018-05-08T05:39:39.568Z,99.99
2018-05-08T05:40:39.526Z,99.99
2018-05-08T05:41:39.495Z,99.99
2018-05-08T05:42:39.507Z,99.99
2018-05-08T05:43:39.431Z,99.99
2018-05-08T05:44:39.381Z,99.99
2018-05-08T05:45:39.378Z,99.99
2018-05-08T05:46:39.325Z,99.99
2018-05-08T05:47:39.282Z,99.99
2018-05-08T05:48:39.259Z,99.99
2018-05-08T05:49:39.235Z,99.99
2018-05-08T05:50:39.174Z,99.99
2018-05-08T05:51:39.138Z,99.99
2018-05-08T05:52:39.136Z,99.99
2018-05-08T05:53:41.021Z,99.99
2018-05-08T05:54:39.041Z,99.99
2018-05-08T05:55:38.994Z,99.99
2018-05-08T05:56:38.944Z,99.99
2018-05-08T05:57:39.019Z,99.99
2018-05-08T05:58:38.881Z,99.99
2018-05-08T05:59:38.840Z,99.99
2018-05-08T06:00:38.837Z,99.99
2018-05-08T06:01:38.780Z,99.99
2018-05-08T06:02:38.725Z,99.99
2018-05-08T06:03:38.700Z,99.99
2018-05-08T06:04:38.668Z,99.99
2018-05-08T06:05:38.627Z,99.99
2018-05-08T06:06:38.596Z,99.99
2018-05-08T06:07:38.573Z,99.99
2018-05-08T06:08:38.516Z,99.99
2018-05-08T06:09:38.485Z,99.99
2018-05-08T06:10:38.444Z,99.99
2018-05-08T06:11:38.410Z,99.99
2018-05-08T06:12:38.381Z,99.99
2018-05-08T06:13:38.363Z,99.99
2018-05-08T06:14:38.316Z,99.99
2018-05-08T06:15:38.297Z,99.99
2018-05-08T06:16:38.231Z,99.99
2018-05-08T06:17:38.193Z,99.99
2018-05-08T06:18:38.145Z,99.99
2018-05-08T06:19:38.137Z,99.99
2018-05-08T06:20:38.080Z,99.99
2018-05-08T06:21:38.055Z,99.99
2018-05-08T06:22:38.083Z,99.99
2018-05-08T06:23:38.009Z,99.99
2018-05-08T06:24:37.961Z,99.99
2018-05-08T06:25:37.908Z,99.99
2018-05-08T06:26:37.960Z,99.99
2018-05-08T06:27:37.849Z,99.99
2018-05-08T06:28:37.817Z,99.99
2018-05-08T06:29:37.806Z,99.99
2018-05-08T06:30:37.764Z,99.99
2018-05-08T06:31:37.689Z,99.99
2018-05-08T06:32:37.656Z,99.99
2018-05-08T06:33:37.604Z,99.99
2018-05-08T06:34:37.604Z,99.99
2018-05-08T06:35:37.569Z,99.99
2018-05-08T06:36:37.507Z,99.99
2018-05-08T06:37:37.482Z,99.99
2018-05-08T06:38:37.451Z,99.99
2018-05-08T06:39:37.481Z,99.99
2018-05-08T06:40:37.400Z,99.99
2018-05-08T06:41:37.335Z,99.99
2018-05-08T06:42:37.297Z,99.99
2018-05-08T06:43:37.278Z,99.99
2018-05-08T06:44:37.223Z,99.99
2018-05-08T06:45:37.227Z,99.99
2018-05-08T06:46:37.203Z,90.08
2018-05-08T06:47:37.136Z,90.90
2018-05-08T06:48:37.088Z,85.46
2018-05-08T06:49:37.064Z,79.19
2018-05-08T06:50:37.011Z,75.90
2018-05-08T06:51:36.976Z,68.04
2018-05-08T06:52:36.962Z,68.19
2018-05-08T06:53:36.924Z,67.14
2018-05-08T06:54:36.884Z,66.46
2018-05-08T06:55:36.850Z,65.88
2018-05-08T06:56:36.824Z,60.16
2018-05-08T06:57:36.838Z,60.76
2018-05-08T06:58:36.761Z,58.12
2018-05-08T06:59:36.735Z,60.38
2018-05-08T07:00:36.714Z,59.89
2018-05-08T07:01:36.688Z,59.38
2018-05-08T07:02:36.667Z,57.54
2018-05-08T07:03:36.620Z,60.61
2018-05-08T07:04:36.584Z,57.79
2018-05-08T07:05:36.593Z,55.99
2018-05-08T07:06:36.533Z,56.57
2018-05-08T07:07:36.505Z,57.09
2018-05-08T07:08:36.475Z,59.47
2018-05-08T07:09:36.474Z,57.43
2018-05-08T07:10:36.467Z,54.93
2018-05-08T07:11:36.406Z,52.27
2018-05-08T07:12:36.385Z,50.72
2018-05-08T07:13:36.382Z,51.18
2018-05-08T07:14:36.322Z,54.03
2018-05-08T07:15:36.356Z,52.48
2018-05-08T07:16:36.312Z,52.82
2018-05-08T07:17:36.245Z,52.17
2018-05-08T07:18:36.276Z,53.91
2018-05-08T07:19:36.210Z,53.23
2018-05-08T07:20:36.199Z,52.75
2018-05-08T07:21:36.159Z,52.05
2018-05-08T07:22:36.148Z,50.33
2018-05-08T07:23:36.124Z,50.14
2018-05-08T07:24:36.082Z,49.34
2018-05-08T07:25:36.068Z,49.99
2018-05-08T07:26:36.119Z,50.07
2018-05-08T07:27:36.040Z,48.79
2018-05-08T07:28:36.011Z,51.54
2018-05-08T07:29:36.009Z,51.18
2018-05-08T07:30:35.963Z,50.76
2018-05-08T07:31:35.979Z,49.44
2018-05-08T07:32:35.916Z,50.04
2018-05-08T07:33:35.907Z,49.32
2018-05-08T07:34:35.907Z,47.89
2018-05-08T07:35:35.883Z,47.52
2018-05-08T07:36:35.847Z,45.34
2018-05-08T07:37:35.837Z,43.66
2018-05-08T07:38:35.813Z,46.58
2018-05-08T07:39:35.780Z,46.35
2018-05-08T07:40:35.773Z,45.18
2018-05-08T07:41:35.733Z,45.36
2018-05-08T07:42:35.727Z,45.57
2018-05-08T07:43:35.685Z,44.72
2018-05-08T07:44:35.695Z,43.23
2018-05-08T07:45:35.687Z,44.27
2018-05-08T07:46:35.721Z,46.02
2018-05-08T07:47:35.618Z,43.72
2018-05-08T07:48:35.588Z,44.78
2018-05-08T07:49:35.576Z,46.14
2018-05-08T07:50:35.577Z,44.67
2018-05-08T07:51:35.527Z,45.08
2018-05-08T07:52:35.525Z,48.25
2018-05-08T07:53:35.544Z,48.08
2018-05-08T07:54:35.490Z,46.46
2018-05-08T07:55:35.466Z,47.19
2018-05-08T07:56:35.466Z,46.60
2018-05-08T07:57:35.440Z,43.31
2018-05-08T07:58:35.514Z,46.75
2018-05-08T07:59:35.395Z,45.83
2018-05-08T08:00:35.365Z,46.56
2018-05-08T08:01:35.367Z,46.31
2018-05-08T08:02:35.400Z,45.81
2018-05-08T08:03:35.320Z,47.19
2018-05-08T08:04:35.290Z,45.95
2018-05-08T08:05:35.275Z,45.58
2018-05-08T08:06:35.249Z,43.91
2018-05-08T08:07:35.275Z,43.35
2018-05-08T08:08:35.247Z,42.54
2018-05-08T08:09:35.217Z,43.87
2018-05-08T08:10:35.181Z,45.41
2018-05-08T08:11:35.178Z,43.27
2018-05-08T08:12:35.154Z,44.42
2018-05-08T08:13:35.117Z,43.91
2018-05-08T08:14:35.124Z,43.61
2018-05-08T08:15:35.102Z,42.18
2018-05-08T08:16:35.081Z,44.13
2018-05-08T08:17:35.054Z,43.26
2018-05-08T08:18:35.109Z,44.54
2018-05-08T08:19:35.055Z,43.80
2018-05-08T08:20:35.016Z,43.88
2018-05-08T08:21:34.978Z,44.94
2018-05-08T08:22:34.985Z,40.95
2018-05-08T08:23:35.008Z,39.31
2018-05-08T08:24:34.945Z,39.88
2018-05-08T08:25:34.971Z,41.57
2018-05-08T08:26:34.886Z,39.69
2018-05-08T08:27:34.892Z,41.06
2018-05-08T08:28:34.863Z,38.37
2018-05-08T08:29:34.867Z,40.75
2018-05-08T08:30:34.824Z,40.81
2018-05-08T08:31:34.805Z,38.99
2018-05-08T08:32:34.788Z,39.98
2018-05-08T08:33:34.764Z,40.85
2018-05-08T08:34:34.759Z,42.09
2018-05-08T08:35:34.756Z,43.88
2018-05-08T08:36:34.724Z,42.25
2018-05-08T08:37:34.764Z,43.92
2018-05-08T08:38:34.685Z,41.90
2018-05-08T08:39:34.692Z,42.11
2018-05-08T08:40:34.650Z,42.10
2018-05-08T08:41:34.634Z,41.57
2018-05-08T08:42:34.613Z,40.41
2018-05-08T08:43:34.592Z,45.45
2018-05-08T08:44:34.579Z,43.61
2018-05-08T08:45:34.580Z,42.18
2018-05-08T08:46:34.600Z,39.76
2018-05-08T08:47:34.586Z,44.53
2018-05-08T08:48:34.531Z,42.24
2018-05-08T08:49:34.526Z,43.44
2018-05-08T08:50:34.495Z,43.29
2018-05-08T08:51:35.007Z,39.82
2018-05-08T08:52:34.452Z,38.91
2018-05-08T08:53:34.433Z,39.06
2018-05-08T08:54:34.399Z,38.50
2018-05-08T08:55:34.411Z,41.88
2018-05-08T08:56:34.370Z,39.84
2018-05-08T08:57:34.358Z,39.76
2018-05-08T08:58:34.344Z,41.72
2018-05-08T08:59:34.332Z,40.58
2018-05-08T09:00:34.301Z,45.75
2018-05-08T09:01:34.291Z,41.77
2018-05-08T09:02:34.275Z,41.78
2018-05-08T09:03:34.257Z,39.06
2018-05-08T09:04:34.243Z,40.85
2018-05-08T09:05:34.215Z,36.79
2018-05-08T09:06:34.215Z,42.23
2018-05-08T09:07:34.176Z,42.33
2018-05-08T09:08:34.151Z,41.24
2018-05-08T09:09:34.142Z,42.50
2018-05-08T09:10:34.113Z,42.86
2018-05-08T09:11:34.145Z,41.80
2018-05-08T09:12:34.109Z,39.98
2018-05-08T09:13:34.102Z,39.26
2018-05-08T09:14:34.064Z,36.44
2018-05-08T09:15:34.040Z,36.32
2018-05-08T09:16:34.031Z,36.63
2018-05-08T09:17:33.986Z,37.47
2018-05-08T09:18:33.986Z,37.10
2018-05-08T09:19:33.978Z,40.52
2018-05-08T09:20:33.934Z,37.86
2018-05-08T09:21:33.956Z,37.51
2018-05-08T09:22:33.931Z,40.83
2018-05-08T09:23:33.903Z,41.22
2018-05-08T09:24:33.886Z,39.57
2018-05-08T09:25:33.834Z,39.16
2018-05-08T09:26:33.853Z,39.45
2018-05-08T09:27:33.816Z,38.46
2018-05-08T09:28:33.802Z,39.39
2018-05-08T09:29:33.790Z,40.41
2018-05-08T09:30:33.754Z,41.43
2018-05-08T09:31:33.728Z,39.76
2018-05-08T09:32:33.739Z,43.59
2018-05-08T09:33:34.526Z,47.64
2018-05-08T09:34:33.686Z,43.80
2018-05-08T09:35:33.666Z,40.50
2018-05-08T09:36:33.653Z,41.80
2018-05-08T09:37:33.707Z,36.73
2018-05-08T09:38:33.604Z,37.20
2018-05-08T09:39:33.607Z,41.69
2018-05-08T09:40:33.588Z,40.66
2018-05-08T09:41:33.582Z,43.59
2018-05-08T09:42:33.551Z,41.67
2018-05-08T09:43:33.512Z,38.50
2018-05-08T09:44:33.501Z,40.03
2018-05-08T09:45:33.485Z,43.27
2018-05-08T09:46:33.498Z,44.78
2018-05-08T09:47:33.446Z,42.29
2018-05-08T09:48:33.415Z,42.36
2018-05-08T09:49:33.507Z,43.37
2018-05-08T09:50:33.372Z,43.98
2018-05-08T09:51:33.376Z,39.92
2018-05-08T09:52:33.346Z,38.75
2018-05-08T09:53:33.329Z,37.41
2018-05-08T09:54:33.309Z,37.52
2018-05-08T09:55:33.295Z,39.28
2018-05-08T09:56:33.273Z,41.61
2018-05-08T09:57:33.268Z,39.37
2018-05-08T09:58:33.231Z,42.13
2018-05-08T09:59:33.207Z,40.85
2018-05-08T10:00:33.208Z,39.84
2018-05-08T10:01:33.202Z,41.28
2018-05-08T10:02:33.168Z,46.45
2018-05-08T10:03:33.144Z,45.79
2018-05-08T10:04:33.125Z,43.22
2018-05-08T10:05:33.117Z,45.67
2018-05-08T10:06:33.138Z,44.24
2018-05-08T10:07:33.062Z,42.13
2018-05-08T10:08:33.039Z,45.24
2018-05-08T10:09:33.047Z,44.19
2018-05-08T10:10:33.022Z,37.76
2018-05-08T10:11:32.988Z,42.38
2018-05-08T10:12:32.986Z,44.46
2018-05-08T10:13:32.957Z,46.47
2018-05-08T10:14:32.925Z,43.36
2018-05-08T10:15:32.915Z,40.75
2018-05-08T10:16:32.912Z,38.19
2018-05-08T10:17:32.917Z,39.67
2018-05-08T10:18:32.874Z,39.37
2018-05-08T10:19:32.832Z,41.93
2018-05-08T10:20:32.877Z,41.98
2018-05-08T10:21:32.805Z,45.18
2018-05-08T10:22:32.799Z,44.51
2018-05-08T10:23:32.745Z,42.36
2018-05-08T10:24:32.771Z,43.55
2018-05-08T10:25:32.718Z,42.90
2018-05-08T10:26:32.710Z,40.01
2018-05-08T10:27:32.698Z,37.95
2018-05-08T10:28:32.739Z,37.34
2018-05-08T10:29:32.641Z,40.95
2018-05-08T10:30:32.647Z,39.43
2018-05-08T10:31:32.623Z,40.67
2018-05-08T10:32:32.586Z,42.48
2018-05-08T10:33:32.551Z,43.10
2018-05-08T10:34:32.551Z,42.71
2018-05-08T10:35:32.520Z,42.43
2018-05-08T10:36:32.497Z,42.64
2018-05-08T10:37:32.497Z,42.56
2018-05-08T10:38:32.466Z,43.82
2018-05-08T10:39:32.466Z,42.93
2018-05-08T10:40:32.414Z,41.96
2018-05-08T10:41:32.409Z,42.52
2018-05-08T10:42:32.403Z,40.79
2018-05-08T10:43:32.377Z,42.49
2018-05-08T10:44:32.350Z,37.74
2018-05-08T10:45:32.336Z,40.08
2018-05-08T10:46:32.317Z,40.81
2018-05-08T10:47:32.325Z,43.79
2018-05-08T10:48:32.355Z,46.19
2018-05-08T10:49:32.347Z,43.93
2018-05-08T10:50:32.225Z,40.66
2018-05-08T10:51:32.199Z,41.92
2018-05-08T10:52:32.178Z,45.55
2018-05-08T10:53:32.183Z,42.56
2018-05-08T10:54:32.154Z,43.40
2018-05-08T10:55:32.142Z,50.38
2018-05-08T10:56:32.127Z,46.01
2018-05-08T10:57:32.090Z,45.34
2018-05-08T10:58:32.145Z,47.61
2018-05-08T10:59:32.081Z,45.18
2018-05-08T11:00:32.020Z,44.79
2018-05-08T11:01:32.042Z,43.22
2018-05-08T11:02:32.000Z,40.69
2018-05-08T11:03:31.979Z,40.11
2018-05-08T11:04:31.968Z,38.07
2018-05-08T11:05:31.921Z,41.20
2018-05-08T11:06:31.906Z,42.74
2018-05-08T11:07:31.891Z,43.63
2018-05-08T11:08:31.870Z,43.38
2018-05-08T11:09:31.870Z,41.96
2018-05-08T11:10:31.913Z,45.38
2018-05-08T11:11:31.853Z,44.82
2018-05-08T11:12:31.935Z,44.55
2018-05-08T11:13:31.770Z,44.12
2018-05-08T11:14:31.764Z,42.13
2018-05-08T11:15:31.742Z,46.33
2018-05-08T11:16:31.723Z,42.43
2018-05-08T11:17:31.691Z,44.38
2018-05-08T11:18:31.673Z,42.52
2018-05-08T11:19:31.660Z,42.79
2018-05-08T11:20:31.624Z,42.02
2018-05-08T11:21:31.609Z,43.21
2018-05-08T11:22:31.587Z,44.86
2018-05-08T11:23:31.617Z,45.34
2018-05-08T11:24:31.560Z,45.07
2018-05-08T11:25:31.548Z,44.78
2018-05-08T11:26:31.606Z,43.62
2018-05-08T11:27:31.497Z,46.04
2018-05-08T11:28:31.483Z,44.09
2018-05-08T11:29:31.454Z,44.20
2018-05-08T11:30:31.455Z,43.13
2018-05-08T11:31:31.417Z,42.29
2018-05-08T11:32:31.396Z,44.81
2018-05-08T11:33:31.391Z,45.56
2018-05-08T11:34:31.351Z,44.27
2018-05-08T11:35:31.329Z,45.64
2018-05-08T11:36:31.370Z,45.56
2018-05-08T11:37:31.330Z,42.26
2018-05-08T11:38:31.290Z,45.51
2018-05-08T11:39:31.257Z,45.21
2018-05-08T11:40:31.249Z,50.41
2018-05-08T11:41:31.263Z,43.84
2018-05-08T11:42:31.239Z,43.58
2018-05-08T11:43:31.223Z,44.10
2018-05-08T11:44:31.205Z,45.37
2018-05-08T11:45:31.200Z,48.66
2018-05-08T11:46:31.110Z,46.04
2018-05-08T11:47:31.127Z,46.55
2018-05-08T11:48:31.083Z,45.56
2018-05-08T11:49:31.040Z,44.54
2018-05-08T11:50:31.038Z,45.12
2018-05-08T11:51:31.028Z,44.27
2018-05-08T11:52:31.018Z,43.30
2018-05-08T11:53:31.000Z,45.14
2018-05-08T11:54:30.962Z,42.61
2018-05-08T11:55:30.935Z,45.51
2018-05-08T11:56:30.910Z,42.43
2018-05-08T11:57:30.923Z,40.19
2018-05-08T11:58:30.878Z,42.44
2018-05-08T11:59:30.846Z,43.54
2018-05-08T12:00:30.854Z,43.18
2018-05-08T12:01:30.845Z,43.37
2018-05-08T12:02:30.932Z,40.08
2018-05-08T12:03:30.818Z,43.10
2018-05-08T12:04:30.766Z,41.86
2018-05-08T12:05:30.746Z,42.35
2018-05-08T12:06:30.719Z,42.52
2018-05-08T12:07:31.039Z,40.31
2018-05-08T12:08:30.662Z,41.49
2018-05-08T12:09:30.653Z,42.64
2018-05-08T12:10:30.625Z,41.39
2018-05-08T12:11:30.607Z,38.06
2018-05-08T12:12:30.618Z,38.46
2018-05-08T12:13:30.579Z,39.51
2018-05-08T12:14:30.596Z,45.94
2018-05-08T12:15:30.547Z,45.07
2018-05-08T12:16:30.499Z,45.38
2018-05-08T12:17:30.469Z,45.69
2018-05-08T12:18:30.469Z,44.02
2018-05-08T12:19:30.460Z,42.19
2018-05-08T12:20:30.456Z,41.22
2018-05-08T12:21:30.427Z,37.70
2018-05-08T12:22:30.379Z,42.08
2018-05-08T12:23:30.390Z,43.36
2018-05-08T12:24:30.433Z,42.46
2018-05-08T12:25:30.353Z,43.24
2018-05-08T12:26:30.295Z,42.46
2018-05-08T12:27:30.269Z,38.95
2018-05-08T12:28:30.255Z,38.32
2018-05-08T12:29:30.245Z,39.29
2018-05-08T12:30:30.255Z,40.85
2018-05-08T12:31:31.106Z,39.49
2018-05-08T12:32:30.179Z,41.33
2018-05-08T12:33:30.168Z,40.66
2018-05-08T12:34:30.169Z,41.92
2018-05-08T12:35:30.113Z,44.85
2018-05-08T12:36:30.107Z,45.17
2018-05-08T12:37:30.091Z,42.35
2018-05-08T12:38:30.052Z,45.26
2018-05-08T12:39:30.068Z,40.48
2018-05-08T12:40:30.021Z,39.90
2018-05-08T12:41:29.985Z,39.32
2018-05-08T12:42:30.005Z,39.01
2018-05-08T12:43:29.970Z,39.69
2018-05-08T12:44:29.956Z,43.61
2018-05-08T12:45:29.938Z,40.29
2018-05-08T12:46:29.907Z,38.89
2018-05-08T12:47:29.971Z,40.08
2018-05-08T12:48:29.871Z,42.05
2018-05-08T12:49:29.845Z,42.15
2018-05-08T12:50:29.830Z,42.95
2018-05-08T12:51:29.787Z,40.52
2018-05-08T12:52:29.771Z,40.52